Time;durP1;ratioP1;P1;durP2;ratioP2;P2;SDS_P1;SDS_P2;PMS_P1;PMS_P2;Temp;Humidity;BMP_temperature;BMP_pressure;BME280_temperature;BME280_humidity;BME280_pressure;Samples;Min_cycle;Max_cycle;Signal;HPM_P1;HPM_P2
2022/02/13 00:01:35;;;;;;;18.40;11.90;;;2.20;99.90;;;;;;5134652;27;20217;-68
2022/02/13 00:04:02;;;;;;;15.65;11.90;;;2.10;99.90;;;;;;5135243;27;20603;-69
2022/02/13 00:06:28;;;;;;;17.92;12.55;;;1.90;99.90;;;;;;5135096;27;20226;-69
2022/02/13 00:08:55;;;;;;;16.45;11.77;;;1.80;99.90;;;;;;5135093;27;20201;-69
2022/02/13 00:11:22;;;;;;;15.98;11.52;;;1.70;99.90;;;;;;5134857;27;20199;-68
2022/02/13 00:13:49;;;;;;;13.90;10.80;;;1.60;99.90;;;;;;5135666;27;20265;-69
2022/02/13 00:16:16;;;;;;;13.57;10.15;;;1.70;99.90;;;;;;5134882;27;20217;-69
2022/02/13 00:18:45;;;;;;;15.13;10.68;;;1.80;99.90;;;;;;5134989;27;20231;-69
2022/02/13 00:21:12;;;;;;;16.23;10.90;;;1.90;99.90;;;;;;5134455;27;20217;-68
2022/02/13 00:23:39;;;;;;;12.82;10.30;;;2.00;99.90;;;;;;5135016;27;20717;-69
2022/02/13 00:26:06;;;;;;;18.27;10.82;;;2.20;99.90;;;;;;5134806;27;20217;-69
2022/02/13 00:28:36;;;;;;;12.57;9.35;;;2.30;99.90;;;;;;5134533;27;20235;-69
2022/02/13 00:31:03;;;;;;;12.88;10.02;;;2.40;99.90;;;;;;5134672;27;20536;-69
2022/02/13 00:33:30;;;;;;;13.13;9.38;;;2.50;99.90;;;;;;5134772;27;20570;-69
2022/02/13 00:35:58;;;;;;;13.13;9.57;;;2.60;99.90;;;;;;5134030;27;20706;-69
2022/02/13 00:38:25;;;;;;;12.57;10.40;;;2.70;99.90;;;;;;5134844;27;20301;-69
2022/02/13 00:40:52;;;;;;;12.73;10.35;;;2.60;99.90;;;;;;5134260;27;20603;-68
2022/02/13 00:43:19;;;;;;;14.85;11.25;;;2.60;99.90;;;;;;5134616;27;20204;-69
2022/02/13 00:45:45;;;;;;;13.90;11.32;;;2.60;99.90;;;;;;5134639;28;20223;-69
2022/02/13 00:48:12;;;;;;;13.82;11.07;;;2.50;99.90;;;;;;5134722;28;20296;-69
2022/02/13 00:50:39;;;;;;;16.05;11.00;;;2.50;99.90;;;;;;5134273;28;20286;-68
2022/02/13 00:53:08;;;;;;;15.73;11.07;;;2.50;99.90;;;;;;5134327;28;20222;-69
2022/02/13 00:55:34;;;;;;;14.52;11.07;;;2.40;99.90;;;;;;5134472;27;20308;-69
2022/02/13 00:58:01;;;;;;;16.70;11.38;;;2.40;99.90;;;;;;5134535;28;20232;-69
2022/02/13 01:00:28;;;;;;;13.50;10.82;;;2.40;99.90;;;;;;5134303;28;20292;-68
2022/02/13 01:02:55;;;;;;;15.10;11.05;;;2.40;99.90;;;;;;5134887;28;20224;-69
2022/02/13 01:05:22;;;;;;;16.27;11.00;;;2.40;99.90;;;;;;5134240;28;20319;-68
2022/02/13 01:07:48;;;;;;;13.77;10.57;;;2.30;99.90;;;;;;5134152;28;20204;-68
2022/02/13 01:10:16;;;;;;;19.00;12.60;;;2.30;99.90;;;;;;5134217;28;20536;-68
2022/02/13 01:12:43;;;;;;;16.05;11.70;;;2.30;99.90;;;;;;5134126;27;20709;-69
2022/02/13 01:15:10;;;;;;;14.82;11.20;;;2.30;99.90;;;;;;5134334;28;20217;-68
2022/02/13 01:17:37;;;;;;;14.73;10.50;;;2.20;99.90;;;;;;5134353;28;20255;-68
2022/02/13 01:20:05;;;;;;;14.07;10.80;;;2.10;99.90;;;;;;5133970;28;20197;-69
2022/02/13 01:22:32;;;;;;;14.18;11.18;;;2.10;99.90;;;;;;5134231;28;20217;-69
2022/02/13 01:24:59;;;;;;;14.77;11.18;;;2.10;99.90;;;;;;5133868;28;20223;-69
2022/02/13 01:27:27;;;;;;;14.10;10.90;;;1.90;99.90;;;;;;5134072;28;20222;-69
2022/02/13 01:29:54;;;;;;;14.32;10.55;;;1.70;99.90;;;;;;5133884;28;20677;-68
2022/02/13 01:32:20;;;;;;;15.82;10.10;;;1.70;99.90;;;;;;5134283;28;20231;-68
2022/02/13 01:34:47;;;;;;;14.32;11.32;;;1.60;99.90;;;;;;5134090;28;20227;-69
2022/02/13 01:37:14;;;;;;;15.18;11.35;;;1.70;99.90;;;;;;5134206;28;20197;-68
2022/02/13 01:39:41;;;;;;;12.68;10.15;;;1.60;99.90;;;;;;5133917;28;20201;-68
2022/02/13 01:42:09;;;;;;;15.98;11.48;;;1.60;99.90;;;;;;5134232;28;20319;-69
2022/02/13 01:44:37;;;;;;;15.77;10.00;;;1.60;99.90;;;;;;5133936;28;20287;-68
2022/02/13 01:47:05;;;;;;;12.75;10.30;;;1.70;99.90;;;;;;5133849;27;20291;-68
2022/02/13 01:49:32;;;;;;;15.68;11.23;;;1.70;99.90;;;;;;5136928;27;20208;-68
2022/02/13 01:52:01;;;;;;;16.05;11.20;;;1.60;99.90;;;;;;5137802;27;20197;-68
2022/02/13 01:54:28;;;;;;;15.15;11.90;;;1.70;99.90;;;;;;5137576;27;20539;-69
2022/02/13 01:56:54;;;;;;;13.65;11.05;;;1.70;99.90;;;;;;5137800;27;20197;-68
2022/02/13 01:59:21;;;;;;;16.33;12.57;;;1.80;99.90;;;;;;5137772;27;20239;-68
2022/02/13 02:01:50;;;;;;;16.27;11.68;;;1.80;99.90;;;;;;5137258;27;20220;-68
2022/02/13 02:04:17;;;;;;;17.55;13.43;;;1.70;99.90;;;;;;5137494;27;20565;-68
2022/02/13 02:06:43;;;;;;;17.77;13.50;;;1.60;99.90;;;;;;5137653;27;20224;-68
2022/02/13 02:09:31;;;;;;;23.83;14.75;;;1.50;99.90;;;;;;5137425;27;20235;-68
2022/02/13 02:12:02;;;;;;;19.92;15.93;;;1.50;99.90;;;;;;5137254;27;20201;-68
2022/02/13 02:14:29;;;;;;;21.10;15.10;;;1.50;99.90;;;;;;5137174;27;20212;-68
2022/02/13 02:16:57;;;;;;;18.85;13.23;;;1.50;99.90;;;;;;5137256;27;20244;-68
2022/02/13 02:19:24;;;;;;;19.38;14.32;;;1.50;99.90;;;;;;5137208;27;20197;-68
2022/02/13 02:21:51;;;;;;;21.55;14.15;;;1.50;99.90;;;;;;5136955;27;20635;-68
2022/02/13 02:24:19;;;;;;;21.35;15.00;;;1.50;99.90;;;;;;5137203;27;20730;-69
2022/02/13 02:26:47;;;;;;;18.92;13.75;;;1.40;99.90;;;;;;5136743;27;20235;-69
2022/02/13 02:29:14;;;;;;;20.85;14.20;;;1.40;99.90;;;;;;5137122;27;20207;-68
2022/02/13 02:31:41;;;;;;;16.58;13.13;;;1.40;99.90;;;;;;5136577;27;20196;-68
2022/02/13 02:34:08;;;;;;;14.57;11.60;;;1.40;99.90;;;;;;5137033;27;20650;-68
2022/02/13 02:36:34;;;;;;;18.58;12.77;;;1.40;99.90;;;;;;5136916;27;20311;-68
2022/02/13 02:39:02;;;;;;;16.48;12.70;;;1.30;99.90;;;;;;5136900;27;20201;-68
2022/02/13 02:41:31;;;;;;;15.85;11.70;;;1.30;99.90;;;;;;5136559;27;20201;-68
2022/02/13 02:43:58;;;;;;;20.35;12.35;;;1.30;99.90;;;;;;5136710;27;20201;-68
2022/02/13 02:46:25;;;;;;;18.02;12.95;;;1.30;99.90;;;;;;5136698;27;20225;-69
2022/02/13 02:48:52;;;;;;;15.07;11.60;;;1.30;99.90;;;;;;5136681;27;20291;-68
2022/02/13 02:51:19;;;;;;;16.52;11.77;;;1.30;99.90;;;;;;5136443;27;20205;-68
2022/02/13 02:53:46;;;;;;;15.80;11.50;;;1.20;99.90;;;;;;5136525;27;20208;-68
2022/02/13 02:56:13;;;;;;;17.33;12.88;;;1.10;99.90;;;;;;5137157;27;20228;-68
2022/02/13 02:58:41;;;;;;;17.48;13.20;;;1.00;99.90;;;;;;5136131;27;20390;-68
2022/02/13 03:01:08;;;;;;;18.70;13.43;;;0.90;99.90;;;;;;5136245;27;20211;-68
2022/02/13 03:03:35;;;;;;;18.13;12.25;;;0.90;99.90;;;;;;5136329;27;20558;-68
2022/02/13 03:06:02;;;;;;;18.20;14.15;;;1.00;99.90;;;;;;5136317;27;20256;-68
2022/02/13 03:08:29;;;;;;;17.85;13.02;;;1.10;99.90;;;;;;5135966;27;20662;-68
2022/02/13 03:10:56;;;;;;;17.60;12.55;;;1.20;99.90;;;;;;5136135;27;20197;-68
2022/02/13 03:13:23;;;;;;;18.88;13.80;;;1.30;99.90;;;;;;5136166;27;20196;-68
2022/02/13 03:15:52;;;;;;;18.35;14.55;;;1.40;99.90;;;;;;5136104;27;20227;-68
2022/02/13 03:18:19;;;;;;;22.90;15.20;;;1.20;99.90;;;;;;5136156;27;20205;-68
2022/02/13 03:20:46;;;;;;;18.60;14.75;;;1.30;99.90;;;;;;5135709;27;20780;-68
2022/02/13 03:23:13;;;;;;;18.65;15.20;;;1.30;99.90;;;;;;5135914;27;20571;-68
2022/02/13 03:25:40;;;;;;;19.83;16.88;;;1.30;99.90;;;;;;5136354;27;20263;-68
2022/02/13 03:28:07;;;;;;;21.23;15.63;;;1.30;99.90;;;;;;5135622;27;20205;-68
2022/02/13 03:30:34;;;;;;;26.63;16.52;;;1.40;99.90;;;;;;5135743;27;20204;-68
2022/02/13 03:33:03;;;;;;;20.58;15.88;;;1.30;99.90;;;;;;5135759;27;20565;-69
2022/02/13 03:35:30;;;;;;;22.55;15.60;;;1.30;99.90;;;;;;5135526;27;20291;-68
2022/02/13 03:37:57;;;;;;;20.48;14.55;;;1.30;99.90;;;;;;5135716;27;20201;-68
2022/02/13 03:40:24;;;;;;;21.45;15.13;;;1.30;99.90;;;;;;5135306;27;20607;-68
2022/02/13 03:42:51;;;;;;;19.00;14.45;;;1.30;99.90;;;;;;5135529;27;20315;-68
2022/02/13 03:45:18;;;;;;;21.50;14.93;;;1.40;99.90;;;;;;5135449;27;20228;-68
2022/02/13 03:47:45;;;;;;;22.55;16.02;;;1.40;99.90;;;;;;5135502;27;20681;-68
2022/02/13 03:50:13;;;;;;;19.63;15.50;;;1.40;99.90;;;;;;5135100;27;20300;-68
2022/02/13 03:52:40;;;;;;;19.48;14.82;;;1.30;99.90;;;;;;5135334;27;20203;-68
2022/02/13 03:55:09;;;;;;;16.83;14.52;;;1.20;99.90;;;;;;5135227;27;20248;-68
2022/02/13 03:57:36;;;;;;;18.10;13.43;;;1.20;99.90;;;;;;5135313;27;20283;-68
2022/02/13 04:00:03;;;;;;;16.73;13.45;;;1.10;99.90;;;;;;5135260;27;20207;-67
2022/02/13 04:02:30;;;;;;;17.27;13.85;;;1.00;99.90;;;;;;5135122;27;20248;-68
2022/02/13 04:04:57;;;;;;;16.75;12.65;;;1.00;99.90;;;;;;5135071;27;20301;-68
2022/02/13 04:07:28;;;;;;;18.15;13.18;;;1.00;99.90;;;;;;5135136;27;20295;-68
2022/02/13 04:09:55;;;;;;;23.65;14.80;;;1.10;99.90;;;;;;5134954;27;20288;-68
2022/02/13 04:12:23;;;;;;;18.92;14.00;;;1.10;99.90;;;;;;5134351;27;20204;-68
2022/02/13 04:14:50;;;;;;;17.23;13.43;;;1.20;99.90;;;;;;5135186;27;20227;-68
2022/02/13 04:17:17;;;;;;;19.50;14.95;;;1.20;99.90;;;;;;5134714;27;20201;-68
2022/02/13 04:19:44;;;;;;;22.83;15.70;;;1.30;99.90;;;;;;5134742;27;20203;-68
2022/02/13 04:22:11;;;;;;;17.38;12.93;;;1.40;99.90;;;;;;5134765;27;20216;-69
2022/02/13 04:24:39;;;;;;;20.58;13.63;;;1.50;99.90;;;;;;5134554;27;20292;-68
2022/02/13 04:27:06;;;;;;;19.67;15.32;;;1.30;99.90;;;;;;5134793;27;20207;-68
2022/02/13 04:29:34;;;;;;;17.52;13.90;;;1.30;99.90;;;;;;5135053;27;20230;-68
2022/02/13 04:32:01;;;;;;;16.70;12.45;;;1.30;99.90;;;;;;5134513;27;20659;-68
2022/02/13 04:34:27;;;;;;;17.88;13.25;;;1.40;99.90;;;;;;5134795;27;20200;-68
2022/02/13 04:36:54;;;;;;;13.63;11.70;;;1.50;99.90;;;;;;5134466;27;20201;-68
2022/02/13 04:39:21;;;;;;;17.65;13.23;;;1.50;99.90;;;;;;5135130;27;20206;-68
2022/02/13 04:41:49;;;;;;;20.13;13.93;;;1.50;99.90;;;;;;5134491;27;20293;-68
2022/02/13 04:44:16;;;;;;;20.20;14.45;;;1.50;99.90;;;;;;5134594;28;20224;-68
2022/02/13 04:46:43;;;;;;;19.13;12.88;;;1.50;99.90;;;;;;5134598;28;20220;-68
2022/02/13 04:49:10;;;;;;;19.00;13.90;;;1.50;99.90;;;;;;5134485;28;20227;-68
2022/02/13 04:51:36;;;;;;;19.05;14.10;;;1.50;99.90;;;;;;5134286;28;20214;-68
2022/02/13 04:54:03;;;;;;;15.82;12.65;;;1.60;99.90;;;;;;5134524;28;20199;-68
2022/02/13 04:56:30;;;;;;;18.25;12.13;;;1.50;99.90;;;;;;5134534;28;20243;-68
2022/02/13 04:58:58;;;;;;;15.30;12.07;;;1.60;99.90;;;;;;5134177;28;20300;-68
2022/02/13 05:01:25;;;;;;;16.35;12.05;;;1.60;99.90;;;;;;5134101;28;20204;-68
2022/02/13 05:03:52;;;;;;;16.95;12.45;;;1.60;99.90;;;;;;5134333;28;20227;-68
2022/02/13 05:06:19;;;;;;;15.60;12.15;;;1.60;99.90;;;;;;5134426;28;20274;-68
2022/02/13 05:08:46;;;;;;;18.23;13.00;;;1.50;99.90;;;;;;5134255;28;20207;-68
2022/02/13 05:11:13;;;;;;;18.55;13.40;;;1.40;99.90;;;;;;5134228;28;20232;-68
2022/02/13 05:13:39;;;;;;;18.65;13.68;;;1.50;99.90;;;;;;5134261;28;20733;-68
2022/02/13 05:16:07;;;;;;;16.45;11.45;;;1.30;99.90;;;;;;5134323;28;20224;-68
2022/02/13 05:18:34;;;;;;;17.85;13.30;;;1.20;99.90;;;;;;5134350;27;20287;-68
2022/02/13 05:21:01;;;;;;;20.38;13.45;;;1.00;99.90;;;;;;5134221;28;20292;-68
2022/02/13 05:23:28;;;;;;;18.27;12.90;;;1.00;99.90;;;;;;5137226;27;20576;-68
2022/02/13 05:25:55;;;;;;;16.58;12.63;;;1.10;99.90;;;;;;5138356;27;20227;-68
2022/02/13 05:28:22;;;;;;;16.15;12.70;;;1.10;99.90;;;;;;5137976;27;20304;-68
2022/02/13 05:30:48;;;;;;;18.02;12.90;;;1.30;99.90;;;;;;5137861;27;20573;-68
2022/02/13 05:33:17;;;;;;;19.33;13.57;;;1.40;99.90;;;;;;5138172;27;20207;-68
2022/02/13 05:35:43;;;;;;;19.02;13.65;;;1.40;99.90;;;;;;5138119;27;20585;-68
2022/02/13 05:38:10;;;;;;;18.50;14.05;;;1.40;99.90;;;;;;5138042;27;20200;-68
2022/02/13 05:40:37;;;;;;;19.00;14.38;;;1.40;99.90;;;;;;5137743;27;20291;-68
2022/02/13 05:43:04;;;;;;;17.50;12.68;;;1.40;99.90;;;;;;5137971;27;20217;-68
2022/02/13 05:45:31;;;;;;;21.73;14.50;;;1.30;99.90;;;;;;5137847;27;20311;-68
2022/02/13 05:47:58;;;;;;;17.30;13.48;;;1.30;99.90;;;;;;5138218;27;20197;-68
2022/02/13 05:50:26;;;;;;;23.60;14.55;;;1.30;99.90;;;;;;5137800;27;20623;-68
2022/02/13 05:52:53;;;;;;;17.75;12.55;;;1.30;99.90;;;;;;5137954;27;20203;-68
2022/02/13 05:55:20;;;;;;;20.88;14.10;;;1.40;99.90;;;;;;5137553;27;20307;-68
2022/02/13 05:57:46;;;;;;;20.67;14.00;;;1.40;99.90;;;;;;5137411;27;20807;-68
2022/02/13 06:00:14;;;;;;;20.88;15.02;;;1.30;99.90;;;;;;5137203;27;20739;-68
2022/02/13 06:02:44;;;;;;;20.25;14.75;;;1.30;99.90;;;;;;5137425;27;20602;-68
2022/02/13 06:05:11;;;;;;;20.88;14.80;;;1.20;99.90;;;;;;5137342;27;20635;-68
2022/02/13 06:07:40;;;;;;;20.98;14.80;;;1.20;99.90;;;;;;5137665;27;20200;-68
2022/02/13 06:10:08;;;;;;;20.05;14.90;;;1.20;99.90;;;;;;5137284;27;20696;-67
2022/02/13 06:12:35;;;;;;;20.55;14.80;;;1.10;99.90;;;;;;5137346;27;20200;-68
2022/02/13 06:15:04;;;;;;;20.75;15.35;;;1.20;99.90;;;;;;5137278;27;20224;-68
2022/02/13 06:17:31;;;;;;;17.75;13.98;;;1.20;99.90;;;;;;5137348;27;20211;-69
2022/02/13 06:19:58;;;;;;;22.48;15.95;;;1.10;99.90;;;;;;5137028;27;20228;-68
2022/02/13 06:22:24;;;;;;;22.33;16.50;;;1.10;99.90;;;;;;5137175;27;20200;-68
2022/02/13 06:24:52;;;;;;;21.15;16.55;;;0.90;99.90;;;;;;5137052;27;20227;-68
2022/02/13 06:27:19;;;;;;;20.90;15.18;;;0.80;99.90;;;;;;5137016;27;20295;-68
2022/02/13 06:29:47;;;;;;;18.60;14.30;;;0.70;99.90;;;;;;5136720;27;20216;-68
2022/02/13 06:32:14;;;;;;;19.60;14.23;;;0.70;99.90;;;;;;5137903;27;20204;-68
2022/02/13 06:34:41;;;;;;;19.88;14.88;;;0.80;99.90;;;;;;5136039;27;20682;-68
2022/02/13 06:37:08;;;;;;;21.42;13.38;;;0.80;99.90;;;;;;5137211;27;20566;-68
2022/02/13 06:39:35;;;;;;;18.48;13.50;;;0.70;99.90;;;;;;5136856;27;20201;-68
2022/02/13 06:42:04;;;;;;;20.00;14.45;;;0.90;99.90;;;;;;5136711;27;20742;-68
2022/02/13 06:44:31;;;;;;;24.25;15.55;;;0.80;99.90;;;;;;5136409;27;20223;-68
2022/02/13 06:46:57;;;;;;;23.10;16.27;;;1.00;99.90;;;;;;5136807;27;20196;-68
2022/02/13 06:49:24;;;;;;;21.27;13.85;;;1.00;99.90;;;;;;5136571;27;20291;-68
2022/02/13 06:51:51;;;;;;;21.52;16.33;;;0.90;99.90;;;;;;5136484;27;20292;-68
2022/02/13 06:54:18;;;;;;;23.35;15.95;;;0.80;99.90;;;;;;5136665;27;20201;-68
2022/02/13 06:56:44;;;;;;;22.27;15.65;;;0.80;99.90;;;;;;5136319;27;20701;-68
2022/02/13 06:59:13;;;;;;;19.95;14.95;;;0.90;99.90;;;;;;5136454;27;20196;-68
2022/02/13 07:01:39;;;;;;;20.98;15.02;;;0.90;99.90;;;;;;5136352;27;20291;-68
2022/02/13 07:04:06;;;;;;;22.83;17.13;;;0.90;99.90;;;;;;5136307;27;20223;-68
2022/02/13 07:06:33;;;;;;;21.90;16.30;;;0.90;99.90;;;;;;5136244;27;20336;-68
2022/02/13 07:09:00;;;;;;;20.95;15.55;;;1.00;99.90;;;;;;5136434;27;20240;-68
2022/02/13 07:11:27;;;;;;;24.33;16.35;;;1.00;99.90;;;;;;5136499;27;20204;-68
2022/02/13 07:13:54;;;;;;;22.88;16.98;;;0.90;99.90;;;;;;5136191;27;20223;-68
2022/02/13 07:16:22;;;;;;;22.63;17.92;;;0.80;99.90;;;;;;5136126;27;20229;-68
2022/02/13 07:18:49;;;;;;;22.55;16.40;;;0.80;99.90;;;;;;5136352;27;20650;-68
2022/02/13 07:21:16;;;;;;;26.00;16.67;;;0.80;99.90;;;;;;5135659;27;20291;-68
2022/02/13 07:23:43;;;;;;;26.92;18.05;;;0.80;99.90;;;;;;5135662;27;20224;-68
2022/02/13 07:26:10;;;;;;;24.65;17.38;;;0.90;99.90;;;;;;5135886;27;20235;-68
2022/02/13 07:31:25;;;;;;;25.58;17.35;;;1.10;99.90;;;;;;5131719;27;20276;-68
2022/02/13 07:33:52;;;;;;;21.77;17.05;;;1.20;99.90;;;;;;5135816;27;20287;-68
2022/02/13 07:36:19;;;;;;;24.90;17.33;;;1.20;99.90;;;;;;5135898;27;20270;-68
2022/02/13 07:38:46;;;;;;;22.33;16.58;;;1.20;99.90;;;;;;5135731;27;20224;-68
2022/02/13 07:41:13;;;;;;;23.08;17.58;;;1.20;99.90;;;;;;5135402;27;20257;-68
2022/02/13 07:43:39;;;;;;;20.92;16.10;;;1.20;99.90;;;;;;5135493;27;20226;-68
2022/02/13 07:46:06;;;;;;;21.70;16.10;;;1.30;99.90;;;;;;5134277;27;20227;-68
2022/02/13 07:48:35;;;;;;;20.75;16.27;;;1.30;99.90;;;;;;5135505;27;20201;-68
2022/02/13 07:51:02;;;;;;;23.20;16.20;;;1.40;99.90;;;;;;5135112;27;20288;-68
2022/02/13 07:53:29;;;;;;;21.58;15.52;;;1.50;99.90;;;;;;5135410;27;20608;-68
2022/02/13 07:55:56;;;;;;;22.10;16.85;;;1.60;99.90;;;;;;5135430;27;20592;-68
2022/02/13 07:58:23;;;;;;;19.90;15.13;;;1.60;99.90;;;;;;5135346;27;20232;-68
2022/02/13 08:00:50;;;;;;;20.55;16.50;;;1.60;99.90;;;;;;5134863;27;20573;-68
2022/02/13 08:03:17;;;;;;;19.65;15.23;;;1.70;99.90;;;;;;5135144;27;20221;-68
2022/02/13 08:05:45;;;;;;;22.98;16.73;;;1.70;99.90;;;;;;5135163;27;20585;-68
2022/02/13 08:08:12;;;;;;;25.42;18.50;;;1.70;99.90;;;;;;5135022;27;20211;-68
2022/02/13 08:10:40;;;;;;;23.40;17.75;;;1.80;99.90;;;;;;5134821;27;20200;-68
2022/02/13 08:13:07;;;;;;;20.70;16.50;;;1.80;99.90;;;;;;5135054;27;20201;-68
2022/02/13 08:15:34;;;;;;;21.40;15.98;;;1.80;99.90;;;;;;5135107;27;20221;-68
2022/02/13 08:18:07;;;;;;;21.35;16.50;;;1.90;99.90;;;;;;5134894;27;20200;-68
2022/02/13 08:20:34;;;;;;;25.88;16.30;;;1.90;99.90;;;;;;5134595;27;20666;-68
2022/02/13 08:23:03;;;;;;;21.65;15.93;;;1.90;99.90;;;;;;5134778;27;20197;-68
2022/02/13 08:25:30;;;;;;;19.80;16.00;;;1.90;99.90;;;;;;5134691;27;20234;-68
2022/02/13 08:27:57;;;;;;;23.20;16.77;;;2.00;99.90;;;;;;5134726;27;20603;-68
2022/02/13 08:30:24;;;;;;;22.20;15.45;;;2.10;99.90;;;;;;5134686;27;20205;-68
2022/02/13 08:32:51;;;;;;;23.45;17.40;;;2.10;99.90;;;;;;5134525;27;20746;-68
2022/02/13 08:35:18;;;;;;;20.48;16.85;;;2.00;99.90;;;;;;5134851;27;20307;-68
2022/02/13 08:37:45;;;;;;;19.42;16.60;;;2.10;99.90;;;;;;5134424;27;20667;-68
2022/02/13 08:40:13;;;;;;;24.23;18.50;;;2.10;99.90;;;;;;5134556;27;20201;-68
2022/02/13 08:42:40;;;;;;;23.00;17.23;;;2.10;99.90;;;;;;5134411;27;20236;-69
2022/02/13 08:45:08;;;;;;;19.08;15.32;;;2.20;99.90;;;;;;5134272;28;20765;-68
2022/02/13 08:47:34;;;;;;;22.20;16.80;;;2.30;99.90;;;;;;5134811;28;20287;-68
2022/02/13 08:50:01;;;;;;;22.10;15.82;;;2.50;99.90;;;;;;5134438;28;20566;-68
2022/02/13 08:52:28;;;;;;;21.75;17.08;;;2.60;99.90;;;;;;5134534;28;20209;-68
2022/02/13 08:54:55;;;;;;;20.23;15.40;;;2.60;99.90;;;;;;5134428;28;20216;-68
2022/02/13 08:57:23;;;;;;;23.63;16.10;;;2.80;99.90;;;;;;5135529;27;20299;-68
2022/02/13 08:59:50;;;;;;;21.20;15.90;;;2.90;99.90;;;;;;5138589;27;20295;-68
2022/02/13 09:02:17;;;;;;;21.23;16.75;;;2.90;99.90;;;;;;5138592;27;20207;-68
2022/02/13 09:04:43;;;;;;;21.60;17.13;;;2.90;99.90;;;;;;5138542;27;20220;-68
2022/02/13 09:07:11;;;;;;;18.15;15.60;;;3.00;99.90;;;;;;5138550;27;20200;-68
2022/02/13 09:09:41;;;;;;;19.80;15.55;;;3.00;99.90;;;;;;5138252;27;20204;-68
2022/02/13 09:12:08;;;;;;;21.58;16.08;;;3.10;99.90;;;;;;5138591;27;20204;-68
2022/02/13 09:14:37;;;;;;;22.48;17.85;;;3.20;99.90;;;;;;5138426;27;20200;-68
2022/02/13 09:17:04;;;;;;;19.50;15.57;;;3.30;99.90;;;;;;5138586;27;20287;-68
2022/02/13 09:19:31;;;;;;;21.42;17.10;;;3.40;99.90;;;;;;5138427;27;20222;-68
2022/02/13 09:21:58;;;;;;;21.45;16.30;;;3.40;99.90;;;;;;5138154;27;20200;-68
2022/02/13 09:24:25;;;;;;;22.58;16.63;;;3.50;99.90;;;;;;5138487;27;20220;-68
2022/02/13 09:26:52;;;;;;;24.02;18.00;;;3.50;99.90;;;;;;5138170;27;20596;-69
2022/02/13 09:29:19;;;;;;;24.30;18.35;;;3.60;99.90;;;;;;5138358;27;20542;-68
2022/02/13 09:31:47;;;;;;;26.48;21.33;;;3.70;99.90;;;;;;5137937;27;20207;-68
2022/02/13 09:34:18;;;;;;;21.92;17.88;;;3.80;99.90;;;;;;5138109;27;20287;-68
2022/02/13 09:36:46;;;;;;;23.98;17.48;;;3.90;99.90;;;;;;5137811;27;20220;-68
2022/02/13 09:39:13;;;;;;;23.80;17.10;;;4.00;99.90;;;;;;5138077;27;20296;-68
2022/02/13 09:41:40;;;;;;;19.33;15.73;;;4.10;99.90;;;;;;5137641;27;20295;-68
2022/02/13 09:44:08;;;;;;;21.70;16.00;;;4.20;99.90;;;;;;5137720;27;20220;-68
2022/02/13 09:46:36;;;;;;;20.83;16.02;;;4.40;99.90;;;;;;5137904;27;20217;-68
2022/02/13 09:49:05;;;;;;;19.85;15.40;;;4.60;99.90;;;;;;5138065;27;20197;-68
2022/02/13 09:51:33;;;;;;;20.23;14.90;;;4.70;99.90;;;;;;5137679;27;20204;-68
2022/02/13 09:53:59;;;;;;;18.33;12.88;;;4.90;99.90;;;;;;5137836;27;20203;-68
2022/02/13 09:56:27;;;;;;;15.82;11.98;;;5.00;99.90;;;;;;5137869;27;20311;-68
2022/02/13 09:58:54;;;;;;;11.65;9.35;;;5.20;99.90;;;;;;5137866;27;20207;-68
2022/02/13 10:01:34;;;;;;;11.27;8.63;;;5.40;99.90;;;;;;5137318;27;20201;-68
2022/02/13 10:04:01;;;;;;;10.82;8.05;;;5.60;99.90;;;;;;5137581;27;20594;-68
2022/02/13 10:06:29;;;;;;;11.15;7.45;;;5.90;99.90;;;;;;5137222;27;20246;-68
2022/02/13 10:08:57;;;;;;;13.38;8.20;;;6.10;99.90;;;;;;5136374;27;20213;-68
2022/02/13 10:11:26;;;;;;;12.45;8.23;;;6.20;99.90;;;;;;5137472;27;20200;-68
2022/02/13 10:13:55;;;;;;;14.38;9.57;;;6.30;99.90;;;;;;5137926;27;20213;-68
2022/02/13 10:16:24;;;;;;;12.38;7.97;;;6.50;99.90;;;;;;5137376;27;20251;-69
2022/02/13 10:18:57;;;;;;;12.35;8.25;;;6.60;99.90;;;;;;5137750;27;20249;-69
2022/02/13 10:21:33;;;;;;;10.52;7.90;;;6.80;99.90;;;;;;5137063;27;20288;-70
2022/02/13 10:24:16;;;;;;;10.63;8.55;;;7.00;99.90;;;;;;5137074;27;20670;-67
2022/02/13 10:26:43;;;;;;;9.30;7.75;;;7.10;99.90;;;;;;5135214;27;20308;-67
2022/02/13 10:29:11;;;;;;;9.93;8.20;;;7.20;99.90;;;;;;5136689;27;20215;-67
2022/02/13 10:31:38;;;;;;;10.90;8.52;;;7.30;99.90;;;;;;5136904;27;20375;-67
2022/02/13 10:34:05;;;;;;;12.75;8.00;;;7.40;99.90;;;;;;5136876;27;20203;-67
2022/02/13 10:36:40;;;;;;;13.27;9.15;;;7.60;99.90;;;;;;5137004;27;20217;-69
2022/02/13 10:39:20;;;;;;;9.07;7.40;;;7.70;99.90;;;;;;5136877;27;20225;-69
2022/02/13 10:41:48;;;;;;;10.88;8.27;;;7.90;99.90;;;;;;5136759;27;20573;-69
2022/02/13 10:44:15;;;;;;;11.73;8.13;;;8.10;99.90;;;;;;5136880;27;20231;-70
2022/02/13 10:46:44;;;;;;;12.05;8.60;;;8.20;99.90;;;;;;5136532;27;20307;-70
2022/02/13 10:49:13;;;;;;;9.57;8.30;;;8.40;99.90;;;;;;5136769;27;20207;-69
2022/02/13 10:51:41;;;;;;;11.20;7.20;;;8.40;99.90;;;;;;5136256;27;20200;-70
2022/02/13 10:54:08;;;;;;;13.10;8.70;;;8.50;99.90;;;;;;5136483;27;20287;-70
2022/02/13 10:56:37;;;;;;;10.98;7.90;;;8.70;99.90;;;;;;5136614;27;20316;-70
2022/02/13 10:59:05;;;;;;;10.65;8.10;;;8.80;99.50;;;;;;5136448;27;20197;-69
2022/02/13 11:01:33;;;;;;;9.27;8.35;;;9.00;99.20;;;;;;5136297;27;20201;-69
2022/02/13 11:04:03;;;;;;;8.88;7.97;;;9.10;98.90;;;;;;5136411;27;20205;-70
2022/02/13 11:06:32;;;;;;;12.15;8.25;;;9.20;98.60;;;;;;5136388;27;20221;-70
2022/02/13 11:09:07;;;;;;;8.93;8.02;;;9.40;97.60;;;;;;5136348;27;20251;-69
2022/02/13 11:11:35;;;;;;;11.48;8.20;;;9.70;98.10;;;;;;5136025;27;20662;-70
2022/02/13 11:14:01;;;;;;;9.13;7.93;;;9.80;97.90;;;;;;5136290;27;20287;-69
2022/02/13 11:16:30;;;;;;;11.10;8.13;;;10.00;96.40;;;;;;5136800;27;20230;-70
2022/02/13 11:18:59;;;;;;;11.85;7.88;;;10.30;95.90;;;;;;5136146;27;20558;-70
2022/02/13 11:21:29;;;;;;;9.25;7.40;;;10.80;95.20;;;;;;5135742;27;20627;-69
2022/02/13 11:23:57;;;;;;;11.60;8.50;;;11.20;94.20;;;;;;5135967;27;20295;-67
2022/02/13 11:26:39;;;;;;;8.40;7.50;;;11.80;91.80;;;;;;5135537;27;20709;-67
2022/02/13 11:29:07;;;;;;;10.60;7.45;;;12.10;91.50;;;;;;5135916;27;20692;-67
2022/02/13 11:31:40;;;;;;;11.40;8.10;;;12.50;90.50;;;;;;5135956;27;20239;-67
2022/02/13 11:34:09;;;;;;;8.40;6.78;;;12.90;87.40;;;;;;5135892;27;20188;-68
2022/02/13 11:36:47;;;;;;;10.27;8.57;;;13.00;86.90;;;;;;5135598;27;20217;-67
2022/02/13 11:39:35;;;;;;;9.13;8.15;;;13.10;83.70;;;;;;5135785;27;20302;-67
2022/02/13 11:42:05;;;;;;;8.88;8.07;;;13.20;84.40;;;;;;5135538;27;20201;-67
2022/02/13 11:44:50;;;;;;;8.68;7.78;;;12.80;82.20;;;;;;5135335;27;20208;-67
2022/02/13 11:47:20;;;;;;;9.25;7.90;;;13.00;82.80;;;;;;5136031;27;20555;-68
2022/02/13 11:50:24;;;;;;;9.10;7.20;;;12.90;80.50;;;;;;5135323;27;20197;-67
2022/02/13 11:53:07;;;;;;;13.05;9.13;;;12.80;80.30;;;;;;5135522;27;20265;-67
2022/02/13 11:55:35;;;;;;;10.55;9.10;;;12.80;82.60;;;;;;5135247;27;20223;-68
2022/02/13 11:58:09;;;;;;;12.82;8.68;;;12.90;83.50;;;;;;5135384;27;20201;-67
2022/02/13 12:00:45;;;;;;;7.38;6.55;;;12.90;82.90;;;;;;5135114;27;20205;-68
2022/02/13 12:03:32;;;;;;;8.10;6.20;;;12.90;78.70;;;;;;5135348;27;20737;-67
2022/02/13 12:06:31;;;;;;;6.07;5.20;;;12.80;79.50;;;;;;5135610;27;20258;-67
2022/02/13 12:09:03;;;;;;;6.65;5.93;;;12.60;75.90;;;;;;5134946;27;20203;-67
2022/02/13 12:11:32;;;;;;;7.10;5.80;;;12.50;75.40;;;;;;5135017;27;20209;-67
2022/02/13 12:14:14;;;;;;;6.90;5.60;;;12.60;78.70;;;;;;5134935;27;20215;-68
2022/02/13 12:16:49;;;;;;;7.88;6.32;;;13.00;75.50;;;;;;5134983;27;20223;-68
2022/02/13 12:19:27;;;;;;;6.32;5.72;;;13.30;70.40;;;;;;5135094;27;20215;-67
2022/02/13 12:22:04;;;;;;;7.18;5.82;;;13.70;68.40;;;;;;5134613;27;20659;-68
2022/02/13 12:24:31;;;;;;;5.80;5.30;;;14.10;66.00;;;;;;5134922;27;20217;-68
2022/02/13 12:27:01;;;;;;;5.57;5.10;;;14.40;64.80;;;;;;5134566;27;20660;-68
2022/02/13 12:29:30;;;;;;;6.63;5.88;;;14.80;63.50;;;;;;5135005;27;20204;-68
2022/02/13 12:32:07;;;;;;;6.93;5.70;;;14.80;61.00;;;;;;5134161;27;20203;-67
2022/02/13 12:34:49;;;;;;;7.30;5.40;;;14.70;59.40;;;;;;5134792;27;20198;-68
2022/02/13 12:37:16;;;;;;;5.30;4.80;;;14.70;59.50;;;;;;5134894;27;20274;-68
2022/02/13 12:39:47;;;;;;;7.78;5.40;;;14.90;60.00;;;;;;5134638;27;20199;-67
2022/02/13 12:42:29;;;;;;;6.90;5.53;;;15.00;58.90;;;;;;5134546;27;20212;-68
2022/02/13 12:44:58;;;;;;;5.53;4.95;;;15.10;58.00;;;;;;5134879;27;20233;-68
2022/02/13 12:47:31;;;;;;;6.57;5.20;;;15.20;57.60;;;;;;5134965;27;20210;-68